Columbus, OH (43204)

8:23 AM EDT on March 28, 2015 (GMT -0400)
weatherUSA HQ | | Change Station
CLOSE
Current Station
Personal Weather Station
Location: Columbus, OH
Elevation: 864 ft
Nearby Weather Stations

Elev 864 ft 39.94 °N, 83.11 °W | Updated 7 seconds ago

Partly Cloudy
Partly Cloudy
17.0 °F
Feels Like 17 °F
N
2.0
Wind Variable Wind from NNW
Gusts 4.0 mph

Today
High -- | Low -- °F
--% Chance of Precip.
Yesterday
High -- | Low -- °F
Precip. -- in
7:23 AM 7:52 PM
First Quarter, 62% visible
Pressure 30.21 in
Visibility 10.0 miles
Clouds Clear
Windchill 17 °F
Dew Point 9 °F
Humidity 70%
Rainfall 0.00 in
Snow Depth Not available.
UV 1 out of 12
Pollen 5.10 out of 12
Air Quality Not available.
Flu Activity Not available.
METAR KTZR 281255Z 35007KT 10SM SKC M08/M13 A3021

More Conditions Fewer Conditions

Pressure 30.21 in
Visibility 10.0 miles
Clouds Clear
Windchill 17 °F
Dew Point 9 °F
Humidity 70%
Rainfall 0.00 in
Snow Depth Not available.
UV 1 out of 12
Pollen 5.10 out of 12
Air Quality Not available.
Flu Activity Not available.
METAR KTZR 281255Z 35007KT 10SM SKC M08/M13 A3021

More Conditions Fewer Conditions

10-Day Weather Forecast

Almanac

Astronomy

Mar. 28, 2015 Rise Set
Actual Time
Civil Twilight
Nautical Twilight
Astronomical Twilight
Moon
Length of Visible Light
Length of Day
Tomorrow will be .
, % of the Moon is Illuminated

Today's Extremes

State Highs State Lows

Community

WunderPhotos

Upload Photos

1,808,964 photos uploaded!

WunderBlogs® & News

Nearby

Air Quality

  Air Quality AQ Index Pollutant
Not available.

Snow Depth

Station Depth Elevation

Earthquake Activity

City Distance Mag. Time & Date
Minimum magnitude displayed is 2.5.

Coastal Water Temperatures

Place Temperature

Stations

Nearby Weather Stations

Station Location Temp. Windchill Dew Point Humidity Wind Precip. Elev Updated Type